Inicio METAR Ruta Wind Satelite

Informe Meteorológico

Fecha: 2020/09/22 21:19:31 Local
2020.09.23 02:19 UTC


Estado: VENCIDO
Operación:VFR
Cartagena / Rafael Nunez, Colombia (SKCG) 10-27N 075-31W 12M
2020.09.22 2300 UTC
Wind: from the W (270 degrees) at 6 MPH (5 KT) (direction variable):0
Visibility: greater than 7 mile(s):0
Sky conditions: partly cloudy
Temperature: 86 F (30 C)
Heat index: 96.8 F (36.0 C):1
Dew Point: 77 F (25 C)
Relative Humidity: 74%
Pressure (altimeter): 29.77 in. Hg (1008 hPa)
ob: SKCG 222300Z 27005KT 230V310 9999 FEW015 SCT200 30/25 A2977
cycle: 23

SKCG 222200Z 27008KT 9999 FEW015 SCT200 31/26 A2976
SKCG 222100Z 28009KT 240V320 FEW017 SCT200 31/26 A2976
SKCG 222000Z 27008KT 230V320 9999 FEW020 32/26 A2975
SKCG 221900Z 26008G21KT 9999 FEW020 SCT200 32/26 A2976
SKCG 221800Z 25009KT 9999 FEW015 SCT100 32/27 A2979

2020/09/22 18:43
TAF SKCG 221630Z 2218/2318 30009KT 9999 FEW015 SCT090
BECMG 2303/2305 VRB02KT TX34/2219Z TN26/2311Z